Time;durP1;ratioP1;P1;durP2;ratioP2;P2;SDS_P1;SDS_P2;PMS_P1;PMS_P2;Temp;Humidity;BMP_temperature;BMP_pressure;BME280_temperature;BME280_humidity;BME280_pressure;Samples;Min_cycle;Max_cycle;Signal;HPM_P1;HPM_P2
2021/08/21 00:02:10;;;;;;;7.60;6.33;;;22.40;99.90;;;;;;5023617;28;20734;-66
2021/08/21 00:04:38;;;;;;;6.33;5.63;;;22.40;99.90;;;;;;5007545;28;20271;-66
2021/08/21 00:07:05;;;;;;;8.87;6.17;;;22.40;99.90;;;;;;5010371;28;20477;-66
2021/08/21 00:09:33;;;;;;;6.63;6.03;;;22.20;99.90;;;;;;5024838;28;20470;-66
2021/08/21 00:11:58;;;;;;;6.60;6.00;;;22.10;99.90;;;;;;5025257;28;20431;-66
2021/08/21 00:14:24;;;;;;;6.47;5.73;;;22.20;99.90;;;;;;5009875;28;20443;-63
2021/08/21 00:16:50;;;;;;;6.03;5.43;;;22.40;99.90;;;;;;5025160;28;20196;-63
2021/08/21 00:19:15;;;;;;;8.17;5.67;;;22.40;99.90;;;;;;5025236;28;20691;-66
2021/08/21 00:21:41;;;;;;;6.57;5.70;;;22.40;99.90;;;;;;5008185;28;20801;-66
2021/08/21 00:24:11;;;;;;;6.23;5.63;;;22.40;99.90;;;;;;5005689;28;20185;-67
2021/08/21 00:26:36;;;;;;;5.63;5.13;;;22.40;99.90;;;;;;5007549;28;20898;-64
2021/08/21 00:29:02;;;;;;;5.90;5.40;;;22.40;99.90;;;;;;5027670;28;20541;-66
2021/08/21 00:31:29;;;;;;;6.50;5.90;;;22.30;99.90;;;;;;5007653;28;20215;-64
2021/08/21 00:34:05;;;;;;;9.83;5.80;;;22.30;99.90;;;;;;5007924;28;20570;-66
2021/08/21 00:36:31;;;;;;;6.60;5.90;;;22.30;99.90;;;;;;5026778;28;20423;-68
2021/08/21 00:38:57;;;;;;;7.67;5.90;;;22.40;99.90;;;;;;5024159;28;20490;-67
2021/08/21 00:41:23;;;;;;;6.60;5.93;;;22.30;99.90;;;;;;5010884;28;20195;-63
2021/08/21 00:44:07;;;;;;;8.20;6.73;;;22.40;99.90;;;;;;5008888;28;20435;-66
2021/08/21 00:47:18;;;;;;;6.97;6.27;;;22.40;99.90;;;;;;5022995;28;20192;-67
2021/08/21 00:49:47;;;;;;;7.17;6.30;;;22.20;99.90;;;;;;5018218;28;20465;-66
2021/08/21 00:52:29;;;;;;;5.70;4.70;;;22.20;99.90;;;;;;5025217;28;20538;-66
2021/08/21 00:54:57;;;;;;;6.43;5.90;;;22.10;99.90;;;;;;5004627;28;20522;-66
2021/08/21 00:57:27;;;;;;;7.53;5.53;;;22.10;99.90;;;;;;5009292;28;21549;-65
2021/08/21 00:59:54;;;;;;;7.10;5.57;;;22.00;99.90;;;;;;5025098;28;20483;-66
2021/08/21 01:02:25;;;;;;;5.17;4.77;;;22.00;99.90;;;;;;5025243;28;20429;-66
2021/08/21 01:04:57;;;;;;;5.93;5.43;;;22.00;99.90;;;;;;5026007;28;20791;-66
2021/08/21 01:07:28;;;;;;;5.90;5.30;;;22.00;99.90;;;;;;5022957;28;20506;-66
2021/08/21 01:09:54;;;;;;;7.73;5.60;;;21.90;99.90;;;;;;5025878;28;20466;-67
2021/08/21 01:12:22;;;;;;;8.83;5.17;;;21.90;99.90;;;;;;5024918;28;20447;-65
2021/08/21 01:14:50;;;;;;;6.53;5.93;;;21.90;99.90;;;;;;5024542;28;20415;-64
2021/08/21 01:17:29;;;;;;;6.00;5.40;;;21.90;99.90;;;;;;5008999;28;20470;-67
2021/08/21 01:19:58;;;;;;;6.70;4.93;;;21.90;99.90;;;;;;5011402;28;20975;-67
2021/08/21 01:22:32;;;;;;;5.60;5.10;;;21.90;99.90;;;;;;5029773;28;20792;-66
2021/08/21 01:25:13;;;;;;;7.40;5.53;;;21.80;99.90;;;;;;5027183;28;20452;-66
2021/08/21 01:27:38;;;;;;;5.43;4.90;;;21.70;99.90;;;;;;5027618;28;20657;-66
2021/08/21 01:30:14;;;;;;;6.13;5.53;;;21.70;99.90;;;;;;5027823;28;20447;-66
2021/08/21 01:32:40;;;;;;;6.13;5.53;;;21.60;99.90;;;;;;5013115;28;20220;-66
2021/08/21 01:35:06;;;;;;;5.43;4.93;;;21.60;99.90;;;;;;5029346;28;20497;-66
2021/08/21 01:37:32;;;;;;;7.00;5.73;;;21.60;99.90;;;;;;5031185;28;20189;-63
2021/08/21 01:40:31;;;;;;;6.17;5.57;;;21.50;99.90;;;;;;5028909;28;21000;-66
2021/08/21 01:42:57;;;;;;;8.67;5.83;;;21.50;99.90;;;;;;5010375;28;20842;-66
2021/08/21 01:45:26;;;;;;;6.50;5.90;;;21.50;99.90;;;;;;5026888;28;20458;-66
2021/08/21 01:47:54;;;;;;;5.17;4.67;;;21.50;99.90;;;;;;5030132;28;20192;-67
2021/08/21 01:50:35;;;;;;;7.80;5.27;;;21.40;99.90;;;;;;5028039;28;20447;-66
2021/08/21 01:53:01;;;;;;;5.23;4.83;;;21.50;99.90;;;;;;5027152;28;20435;-64
2021/08/21 01:55:29;;;;;;;6.20;5.33;;;21.40;99.90;;;;;;5029372;28;20435;-66
2021/08/21 01:57:55;;;;;;;5.97;4.80;;;21.50;99.90;;;;;;5027828;28;20430;-66
2021/08/21 02:00:54;;;;;;;5.70;5.13;;;21.40;99.90;;;;;;5027544;28;20838;-66
2021/08/21 02:03:35;;;;;;;5.80;5.20;;;21.40;99.90;;;;;;4987023;28;20219;-66
2021/08/21 02:06:02;;;;;;;6.07;5.47;;;21.40;99.90;;;;;;5013168;28;20436;-64
2021/08/21 02:08:28;;;;;;;6.70;5.53;;;21.40;99.90;;;;;;5030020;28;20460;-63
2021/08/21 02:10:57;;;;;;;7.30;5.80;;;21.20;99.90;;;;;;5010554;28;20485;-66
2021/08/21 02:13:23;;;;;;;5.80;5.23;;;21.20;99.90;;;;;;5028998;28;20434;-64
2021/08/21 02:16:28;;;;;;;6.50;5.40;;;21.20;99.90;;;;;;5027203;28;20443;-66
2021/08/21 02:18:53;;;;;;;5.40;4.83;;;21.20;99.90;;;;;;5023342;28;20228;-66
2021/08/21 02:21:20;;;;;;;6.03;5.17;;;21.20;99.90;;;;;;5022574;28;20446;-66
2021/08/21 02:23:46;;;;;;;7.20;5.20;;;21.20;99.90;;;;;;5012943;28;20176;-66
2021/08/21 02:26:12;;;;;;;5.57;5.07;;;21.20;99.90;;;;;;5030216;28;20450;-64
2021/08/21 02:28:38;;;;;;;9.17;5.50;;;21.10;99.90;;;;;;5027340;28;20435;-65
2021/08/21 02:31:07;;;;;;;5.23;4.70;;;21.10;99.90;;;;;;5027320;28;20445;-65
2021/08/21 02:33:35;;;;;;;5.53;5.03;;;21.10;99.90;;;;;;5012211;28;20457;-66
2021/08/21 02:36:00;;;;;;;6.13;5.50;;;21.10;99.90;;;;;;5026787;28;20470;-66
2021/08/21 02:38:26;;;;;;;5.53;4.90;;;21.10;99.90;;;;;;5027606;28;20502;-67
2021/08/21 02:40:53;;;;;;;6.40;5.80;;;21.10;99.90;;;;;;5030226;28;20250;-64
2021/08/21 02:43:20;;;;;;;5.87;5.37;;;21.00;99.90;;;;;;5023725;28;20204;-66
2021/08/21 02:45:58;;;;;;;5.40;4.97;;;21.00;99.90;;;;;;5026185;28;20455;-66
2021/08/21 02:48:24;;;;;;;6.43;5.80;;;20.90;99.90;;;;;;5027480;28;20451;-66
2021/08/21 02:50:50;;;;;;;5.77;5.20;;;20.90;99.90;;;;;;5028654;28;20798;-67
2021/08/21 02:53:16;;;;;;;6.03;5.00;;;20.90;99.90;;;;;;5029940;28;20482;-66
2021/08/21 02:55:42;;;;;;;6.13;5.63;;;20.90;99.90;;;;;;5028345;28;20613;-66
2021/08/21 02:58:08;;;;;;;7.60;5.70;;;20.80;99.90;;;;;;5028528;28;20467;-66
2021/08/21 03:01:07;;;;;;;7.53;5.90;;;20.80;99.90;;;;;;5026141;28;20222;-66
2021/08/21 03:03:33;;;;;;;5.73;5.13;;;20.80;99.90;;;;;;5025318;28;20200;-66
2021/08/21 03:05:59;;;;;;;9.50;6.47;;;20.80;99.90;;;;;;5007702;28;20423;-66
2021/08/21 03:08:31;;;;;;;6.20;5.60;;;20.80;99.90;;;;;;5008023;28;20682;-66
2021/08/21 03:10:57;;;;;;;5.70;5.20;;;20.80;99.90;;;;;;5026922;28;20525;-66
2021/08/21 03:13:29;;;;;;;6.40;5.80;;;20.70;99.90;;;;;;5010958;28;20522;-64
2021/08/21 03:15:55;;;;;;;7.23;5.60;;;20.70;99.90;;;;;;5024991;28;20189;-64
2021/08/21 03:18:49;;;;;;;6.40;5.63;;;20.60;99.90;;;;;;5029363;28;20481;-67
2021/08/21 03:21:15;;;;;;;6.17;5.53;;;20.60;99.90;;;;;;5027608;28;20184;-66
2021/08/21 03:23:42;;;;;;;6.33;5.30;;;20.50;99.90;;;;;;5025997;28;20506;-66
2021/08/21 03:26:08;;;;;;;6.70;6.00;;;20.40;99.90;;;;;;5026265;28;20431;-66
2021/08/21 03:28:34;;;;;;;6.10;5.50;;;20.40;99.90;;;;;;5120642;22;20449;-66
2021/08/21 03:31:00;;;;;;;6.20;5.60;;;20.40;99.90;;;;;;5008299;28;20432;-66
2021/08/21 03:33:25;;;;;;;8.10;5.03;;;20.40;99.90;;;;;;5024886;28;21001;-67
2021/08/21 03:35:51;;;;;;;6.63;6.00;;;20.40;99.90;;;;;;5009235;28;20783;-63
2021/08/21 03:38:23;;;;;;;6.63;6.00;;;20.40;99.90;;;;;;5022791;28;20284;-66
2021/08/21 03:40:49;;;;;;;9.23;5.80;;;20.40;99.90;;;;;;5007995;28;20431;-66
2021/08/21 03:46:16;;;;;;;6.67;5.97;;;20.30;99.90;;;;;;5024004;28;20196;-66
2021/08/21 03:48:50;;;;;;;7.73;5.93;;;20.20;99.90;;;;;;5022335;28;20828;-64
2021/08/21 03:51:30;;;;;;;7.73;5.63;;;20.20;99.90;;;;;;5023067;28;20633;-64
2021/08/21 03:53:55;;;;;;;9.33;5.97;;;20.30;99.90;;;;;;5022596;28;20426;-66
2021/08/21 03:56:21;;;;;;;5.30;4.80;;;20.20;99.90;;;;;;5027294;28;20497;-66
2021/08/21 03:58:47;;;;;;;6.13;5.60;;;20.20;99.90;;;;;;5023620;28;20284;-66
2021/08/21 04:01:15;;;;;;;6.20;5.60;;;20.30;99.90;;;;;;5004769;28;20537;-65
2021/08/21 04:03:42;;;;;;;6.57;5.97;;;20.30;99.90;;;;;;5016541;28;20994;-64
2021/08/21 04:06:08;;;;;;;6.10;5.50;;;20.30;99.90;;;;;;5004779;28;20478;-63
2021/08/21 04:08:34;;;;;;;6.33;5.73;;;20.30;99.90;;;;;;5007035;28;20452;-64
2021/08/21 04:11:00;;;;;;;6.80;6.10;;;20.30;99.90;;;;;;5022481;28;20442;-66
2021/08/21 04:13:47;;;;;;;8.00;6.23;;;20.30;99.90;;;;;;5022338;28;20388;-67
2021/08/21 04:16:13;;;;;;;6.60;6.00;;;20.30;99.90;;;;;;5025534;28;20187;-65
2021/08/21 04:18:38;;;;;;;11.03;6.13;;;20.10;99.90;;;;;;5021092;28;20931;-66
2021/08/21 04:21:07;;;;;;;6.20;5.60;;;20.10;99.90;;;;;;5021632;28;20216;-66
2021/08/21 04:23:37;;;;;;;6.23;5.10;;;20.00;99.90;;;;;;5023486;28;20189;-67
2021/08/21 04:26:03;;;;;;;6.30;5.70;;;19.90;99.90;;;;;;5022151;28;20522;-67
2021/08/21 04:28:32;;;;;;;7.67;5.90;;;19.90;99.90;;;;;;5025451;28;20518;-65
2021/08/21 04:31:13;;;;;;;6.03;5.43;;;20.00;99.90;;;;;;5024369;28;20192;-67
2021/08/21 04:33:39;;;;;;;6.97;6.00;;;20.00;99.90;;;;;;5027388;28;20488;-67
2021/08/21 04:36:05;;;;;;;6.53;5.67;;;20.10;99.90;;;;;;5003790;28;20427;-67
2021/08/21 04:38:50;;;;;;;10.97;6.40;;;20.00;99.90;;;;;;5073546;22;20445;-67
2021/08/21 04:41:16;;;;;;;6.60;6.00;;;20.00;99.90;;;;;;5043798;28;20428;-67
2021/08/21 04:43:51;;;;;;;9.93;5.70;;;19.90;99.90;;;;;;5044534;28;20434;-66
2021/08/21 04:46:16;;;;;;;6.40;5.80;;;19.90;99.90;;;;;;5042034;28;20841;-66
2021/08/21 04:48:42;;;;;;;6.50;5.90;;;19.90;99.90;;;;;;5045895;28;20511;-65
2021/08/21 04:51:10;;;;;;;6.47;5.67;;;19.80;99.90;;;;;;5039859;28;20189;-67
2021/08/21 04:53:37;;;;;;;6.50;5.90;;;19.90;99.90;;;;;;5045591;28;20202;-67
2021/08/21 04:56:04;;;;;;;7.07;6.33;;;19.70;99.90;;;;;;5042070;28;21038;-67
2021/08/21 04:58:30;;;;;;;6.10;5.60;;;19.70;99.90;;;;;;5043603;28;20459;-67
2021/08/21 05:00:56;;;;;;;6.33;5.70;;;19.80;99.90;;;;;;5045468;28;20464;-64
2021/08/21 05:03:21;;;;;;;5.93;5.30;;;19.90;99.90;;;;;;5044043;28;20195;-67
2021/08/21 05:05:47;;;;;;;7.93;6.70;;;20.00;99.90;;;;;;5044159;28;20184;-67
2021/08/21 05:08:13;;;;;;;7.33;6.13;;;19.90;99.90;;;;;;5045953;28;20200;-67
2021/08/21 05:10:39;;;;;;;7.57;6.50;;;19.80;99.90;;;;;;5041499;28;20437;-67
2021/08/21 05:13:04;;;;;;;6.80;6.10;;;19.90;99.90;;;;;;5048007;28;20638;-65
2021/08/21 05:15:33;;;;;;;6.13;5.23;;;19.80;99.90;;;;;;5043825;28;20187;-65
2021/08/21 05:18:00;;;;;;;6.23;5.63;;;19.70;99.90;;;;;;5044308;28;20237;-68
2021/08/21 05:20:28;;;;;;;6.50;5.90;;;19.70;99.90;;;;;;5043784;28;20456;-64
2021/08/21 05:23:06;;;;;;;5.43;4.90;;;19.80;99.90;;;;;;5043721;28;22720;-64
2021/08/21 05:25:32;;;;;;;9.40;6.00;;;19.90;99.90;;;;;;5044410;28;20953;-67
2021/08/21 05:28:04;;;;;;;6.67;5.77;;;19.80;99.90;;;;;;5044709;28;20488;-64
2021/08/21 05:30:30;;;;;;;7.87;6.90;;;19.90;99.90;;;;;;5042390;28;20521;-66
2021/08/21 05:32:57;;;;;;;6.17;5.57;;;19.80;99.90;;;;;;5043645;28;21575;-68
2021/08/21 05:35:22;;;;;;;5.70;5.17;;;19.80;99.90;;;;;;5043315;28;20430;-64
2021/08/21 05:37:48;;;;;;;13.73;6.23;;;19.60;99.90;;;;;;5045827;28;20742;-64
2021/08/21 05:40:14;;;;;;;7.00;5.50;;;19.60;99.90;;;;;;5045314;28;20227;-65
2021/08/21 05:42:39;;;;;;;6.57;5.70;;;19.80;99.90;;;;;;5043692;28;20183;-66
2021/08/21 05:45:09;;;;;;;6.97;6.27;;;19.90;99.90;;;;;;5042408;28;20555;-67
2021/08/21 05:47:47;;;;;;;11.63;5.80;;;19.90;99.90;;;;;;5025907;28;20191;-66
2021/08/21 05:50:14;;;;;;;7.33;5.90;;;19.90;99.90;;;;;;5043585;28;20472;-67
2021/08/21 05:52:40;;;;;;;6.83;5.63;;;20.00;99.90;;;;;;5041984;28;20449;-66
2021/08/21 05:55:09;;;;;;;6.63;6.03;;;20.00;99.90;;;;;;5046502;28;20525;-66
2021/08/21 05:57:34;;;;;;;6.90;5.90;;;20.10;99.90;;;;;;5043531;28;20423;-66
2021/08/21 06:00:00;;;;;;;6.40;5.90;;;20.00;99.90;;;;;;5040743;28;20986;-66
2021/08/21 06:02:27;;;;;;;8.53;5.50;;;20.00;99.90;;;;;;5047021;28;20889;-63
2021/08/21 06:04:52;;;;;;;6.30;5.50;;;19.70;99.90;;;;;;5026694;28;20196;-64
2021/08/21 06:07:18;;;;;;;6.67;5.47;;;19.70;99.90;;;;;;5044803;28;20470;-64
2021/08/21 06:09:44;;;;;;;6.20;5.63;;;19.70;99.90;;;;;;5045221;28;20223;-66
2021/08/21 06:12:10;;;;;;;7.30;5.50;;;19.80;99.90;;;;;;5042502;28;20184;-66
2021/08/21 06:14:38;;;;;;;6.07;5.47;;;19.80;99.90;;;;;;5048151;28;20194;-64
2021/08/21 06:17:11;;;;;;;7.83;6.20;;;19.70;99.90;;;;;;5042802;28;20276;-66
2021/08/21 06:19:37;;;;;;;6.43;5.30;;;19.70;99.90;;;;;;5044536;28;20486;-66
2021/08/21 06:22:04;;;;;;;6.50;5.80;;;19.60;99.90;;;;;;5048284;28;21015;-66
2021/08/21 06:24:43;;;;;;;6.00;5.50;;;19.80;99.90;;;;;;5046252;28;20476;-66
2021/08/21 06:27:11;;;;;;;6.73;6.10;;;19.90;99.90;;;;;;5044775;28;20468;-65
2021/08/21 06:29:36;;;;;;;6.60;5.17;;;19.80;99.90;;;;;;5029060;28;20474;-66
2021/08/21 06:32:12;;;;;;;7.23;6.17;;;19.90;99.90;;;;;;5044084;28;21042;-66
2021/08/21 06:34:38;;;;;;;7.43;5.53;;;19.90;99.90;;;;;;5045692;28;20545;-63
2021/08/21 06:37:05;;;;;;;7.17;6.50;;;20.00;99.90;;;;;;5039547;28;20447;-65
2021/08/21 06:39:34;;;;;;;6.07;5.40;;;20.00;99.90;;;;;;5043867;28;20212;-67
2021/08/21 06:42:01;;;;;;;6.23;5.60;;;20.00;99.90;;;;;;5044574;28;20442;-66
2021/08/21 06:44:27;;;;;;;6.23;5.50;;;19.80;99.90;;;;;;5046035;28;20449;-64
2021/08/21 06:46:53;;;;;;;6.57;5.93;;;20.10;99.90;;;;;;5043418;28;20943;-66
2021/08/21 06:49:19;;;;;;;10.00;5.53;;;19.90;99.90;;;;;;5045563;28;20222;-66
2021/08/21 06:51:44;;;;;;;7.00;6.30;;;20.00;99.90;;;;;;5026650;28;20275;-66
2021/08/21 06:54:10;;;;;;;6.57;5.97;;;20.20;99.90;;;;;;5025207;28;20677;-66
2021/08/21 06:56:37;;;;;;;7.80;5.10;;;20.20;99.90;;;;;;5046008;28;20707;-66
2021/08/21 06:59:02;;;;;;;7.50;6.23;;;20.30;99.90;;;;;;5007887;28;20303;-66
2021/08/21 07:01:38;;;;;;;9.00;7.13;;;20.40;99.90;;;;;;5046208;28;20525;-67
2021/08/21 07:04:09;;;;;;;6.37;5.80;;;20.20;99.90;;;;;;5043094;28;20209;-67
2021/08/21 07:06:38;;;;;;;6.77;6.07;;;20.30;99.90;;;;;;5046180;28;20446;-67
2021/08/21 07:09:09;;;;;;;6.50;5.60;;;20.40;99.90;;;;;;5044847;28;20519;-67
2021/08/21 07:11:36;;;;;;;5.80;5.23;;;20.50;99.90;;;;;;5042594;28;20492;-67
2021/08/21 07:14:05;;;;;;;6.33;5.37;;;20.70;99.90;;;;;;5026482;28;20465;-66
2021/08/21 07:16:33;;;;;;;6.50;5.23;;;20.60;99.90;;;;;;5045216;28;20480;-66
2021/08/21 07:19:06;;;;;;;7.43;6.13;;;20.30;99.90;;;;;;5044606;28;20906;-66
2021/08/21 07:21:32;;;;;;;7.03;5.70;;;20.40;99.90;;;;;;5044220;28;20530;-64
2021/08/21 07:23:57;;;;;;;7.70;5.87;;;20.60;99.90;;;;;;5043616;28;20879;-64
2021/08/21 07:26:27;;;;;;;6.50;5.90;;;20.40;99.90;;;;;;5044609;28;20532;-64
2021/08/21 07:28:52;;;;;;;6.27;5.67;;;20.50;99.90;;;;;;5024729;28;20234;-64
2021/08/21 07:31:21;;;;;;;5.87;5.37;;;20.60;99.90;;;;;;5042937;28;20434;-65
2021/08/21 07:33:47;;;;;;;7.87;5.30;;;20.80;99.90;;;;;;5025982;28;20188;-64
2021/08/21 07:36:12;;;;;;;6.40;5.70;;;20.70;99.90;;;;;;5042481;28;20994;-65
2021/08/21 07:38:38;;;;;;;5.57;4.73;;;20.60;99.90;;;;;;5045802;28;20228;-66
2021/08/21 07:41:10;;;;;;;6.70;5.70;;;20.60;99.90;;;;;;5043642;28;20188;-67
2021/08/21 07:43:36;;;;;;;5.90;5.30;;;20.60;99.90;;;;;;5043486;28;20184;-66
2021/08/21 07:46:01;;;;;;;5.43;4.93;;;20.70;99.90;;;;;;5048028;28;21036;-63
2021/08/21 07:48:27;;;;;;;5.93;5.37;;;20.80;99.90;;;;;;5045886;28;20212;-66
2021/08/21 07:50:52;;;;;;;5.70;5.07;;;20.90;99.90;;;;;;5044576;28;20193;-66
2021/08/21 07:53:18;;;;;;;6.63;5.60;;;20.70;99.90;;;;;;5043146;28;20218;-66
2021/08/21 07:55:44;;;;;;;6.70;5.57;;;20.70;99.90;;;;;;5043188;28;20218;-65
2021/08/21 07:58:12;;;;;;;5.80;5.30;;;20.80;99.90;;;;;;5044241;28;20181;-67
2021/08/21 08:00:37;;;;;;;6.90;5.53;;;20.90;99.90;;;;;;5027581;28;20210;-67
2021/08/21 08:03:03;;;;;;;6.50;5.90;;;21.10;99.90;;;;;;5045610;28;20435;-67
2021/08/21 08:05:32;;;;;;;5.97;5.30;;;21.10;99.90;;;;;;5045371;28;20274;-63
2021/08/21 08:07:59;;;;;;;6.20;5.60;;;21.30;99.90;;;;;;5029514;28;20184;-67
2021/08/21 08:10:29;;;;;;;8.23;5.50;;;21.30;99.90;;;;;;5039408;28;20880;-65
2021/08/21 08:12:55;;;;;;;5.90;4.77;;;21.30;99.90;;;;;;5046083;28;20490;-65
2021/08/21 08:15:20;;;;;;;5.07;4.67;;;21.20;99.90;;;;;;5026000;28;20234;-65
2021/08/21 08:17:46;;;;;;;5.93;5.33;;;21.30;99.90;;;;;;5041140;28;20202;-67
2021/08/21 08:20:12;;;;;;;7.53;5.07;;;21.30;99.90;;;;;;5026003;28;20210;-67
2021/08/21 08:22:38;;;;;;;4.97;4.57;;;21.40;99.90;;;;;;5041342;28;20654;-65
2021/08/21 08:25:04;;;;;;;6.33;4.93;;;21.50;99.90;;;;;;5044333;28;20434;-66
2021/08/21 08:27:40;;;;;;;5.77;5.17;;;21.50;99.90;;;;;;5040017;28;20246;-67
2021/08/21 08:30:06;;;;;;;5.87;4.87;;;21.50;99.90;;;;;;5010095;28;20880;-67
2021/08/21 08:32:45;;;;;;;9.20;5.20;;;21.50;99.90;;;;;;5042025;28;20446;-67
2021/08/21 08:35:14;;;;;;;7.93;5.57;;;21.50;99.90;;;;;;5024640;28;20422;-67
2021/08/21 08:37:41;;;;;;;6.60;5.43;;;21.40;99.90;;;;;;5043025;28;20434;-66
2021/08/21 08:40:09;;;;;;;6.80;6.20;;;21.50;99.90;;;;;;5093597;22;21515;-66
2021/08/21 08:42:40;;;;;;;6.10;5.10;;;21.60;99.90;;;;;;5044487;28;20422;-67
2021/08/21 08:45:13;;;;;;;9.27;6.53;;;21.70;99.90;;;;;;5041129;28;20557;-67
2021/08/21 08:47:41;;;;;;;5.60;5.10;;;21.80;99.90;;;;;;5042111;28;20439;-66
2021/08/21 08:50:31;;;;;;;6.60;5.33;;;21.90;99.90;;;;;;5018067;28;20510;-66
2021/08/21 08:53:12;;;;;;;5.07;4.40;;;21.90;99.90;;;;;;5007046;28;20423;-65
2021/08/21 08:55:39;;;;;;;6.10;5.50;;;22.10;99.90;;;;;;5006494;28;20470;-65
2021/08/21 08:58:24;;;;;;;;;;;;;;;;;;;;;
2021/08/21 09:00:50;;;;;;;5.60;5.10;;;22.30;99.90;;;;;;5024642;28;20428;-65
2021/08/21 09:03:24;;;;;;;6.90;5.50;;;22.30;99.90;;;;;;5022159;28;20946;-65
2021/08/21 09:05:52;;;;;;;5.60;5.10;;;22.30;99.90;;;;;;5021438;28;20432;-67
2021/08/21 09:08:27;;;;;;;6.43;5.00;;;22.30;99.90;;;;;;5003492;28;20444;-66
2021/08/21 09:10:58;;;;;;;5.10;4.60;;;22.50;99.90;;;;;;5009430;28;20449;-65
2021/08/21 09:13:31;;;;;;;6.37;5.77;;;22.50;99.90;;;;;;5008388;28;20438;-67
2021/08/21 09:16:34;;;;;;;5.67;4.80;;;22.50;99.90;;;;;;5021233;28;20853;-65
2021/08/21 09:19:27;;;;;;;5.60;5.03;;;22.50;99.90;;;;;;5024949;28;20446;-65
2021/08/21 09:22:03;;;;;;;5.90;4.73;;;22.70;99.90;;;;;;5021618;28;20750;-67
2021/08/21 09:24:30;;;;;;;6.10;5.50;;;22.80;99.90;;;;;;5021855;28;20434;-67
2021/08/21 09:27:27;;;;;;;5.87;4.73;;;22.90;99.90;;;;;;5022772;28;20451;-66
2021/08/21 09:30:07;;;;;;;7.00;4.90;;;22.90;99.90;;;;;;5020673;28;20481;-66
2021/08/21 09:32:45;;;;;;;5.30;4.90;;;22.90;99.90;;;;;;5025446;28;20430;-65
2021/08/21 09:35:15;;;;;;;5.47;4.90;;;23.00;99.90;;;;;;5021795;28;21235;-67
2021/08/21 09:37:59;;;;;;;5.50;5.00;;;22.90;99.90;;;;;;5024862;28;20461;-66
2021/08/21 09:40:37;;;;;;;6.40;5.57;;;23.10;99.90;;;;;;5027240;28;20919;-67
2021/08/21 09:43:28;;;;;;;6.20;5.60;;;23.10;99.90;;;;;;5013504;28;20423;-65
2021/08/21 09:46:16;;;;;;;5.80;5.30;;;23.20;99.90;;;;;;5008347;28;20439;-66
2021/08/21 09:49:21;;;;;;;6.00;5.00;;;23.30;99.90;;;;;;5005687;28;20476;-66
2021/08/21 09:51:50;;;;;;;4.87;4.47;;;23.50;99.90;;;;;;4975478;28;21284;-66
2021/08/21 09:54:22;;;;;;;6.00;5.40;;;23.60;99.90;;;;;;5014615;28;20458;-67
2021/08/21 09:56:58;;;;;;;5.30;4.80;;;23.60;99.90;;;;;;5022974;28;20984;-66
2021/08/21 09:59:39;;;;;;;5.50;5.00;;;23.60;99.90;;;;;;5006859;28;20537;-66
2021/08/21 10:02:24;;;;;;;5.73;4.67;;;23.80;99.90;;;;;;5020653;28;20448;-65
2021/08/21 10:04:50;;;;;;;5.53;5.03;;;23.80;99.90;;;;;;5021960;28;20435;-64
2021/08/21 10:07:19;;;;;;;6.10;5.50;;;23.70;99.90;;;;;;5024696;28;20780;-66
2021/08/21 10:09:52;;;;;;;5.23;4.73;;;23.70;99.90;;;;;;5023169;28;20505;-66
2021/08/21 10:12:21;;;;;;;5.60;4.90;;;23.80;99.90;;;;;;5007844;28;21170;-66
2021/08/21 10:14:49;;;;;;;6.10;4.93;;;23.80;99.90;;;;;;5010637;28;20523;-66
2021/08/21 10:17:19;;;;;;;7.03;4.93;;;24.00;99.90;;;;;;5004192;28;20450;-66
2021/08/21 10:19:47;;;;;;;4.87;4.37;;;24.20;99.90;;;;;;5020619;28;20460;-66
2021/08/21 10:22:14;;;;;;;5.13;4.63;;;24.30;99.90;;;;;;4989615;28;20450;-65
2021/08/21 10:24:47;;;;;;;4.60;4.20;;;24.30;99.90;;;;;;5026698;28;20464;-66
2021/08/21 10:27:28;;;;;;;5.10;4.50;;;24.40;99.90;;;;;;5025800;28;20462;-67
2021/08/21 10:30:03;;;;;;;5.47;4.20;;;24.40;99.90;;;;;;5027249;28;20458;-67
2021/08/21 10:33:00;;;;;;;6.20;5.43;;;24.50;99.90;;;;;;5020834;22;20504;-62
2021/08/21 10:38:45;;;;;;;4.80;4.40;;;24.60;99.90;;;;;;5093709;22;21044;-69
2021/08/21 10:41:11;;;;;;;5.47;4.97;;;24.70;99.90;;;;;;5021231;28;20428;-69
2021/08/21 10:43:54;;;;;;;5.50;5.00;;;24.80;99.90;;;;;;5020015;28;20423;-67
2021/08/21 10:46:29;;;;;;;6.00;5.40;;;25.00;99.90;;;;;;5002538;28;20193;-67
2021/08/21 10:49:08;;;;;;;6.07;4.60;;;25.20;99.90;;;;;;5016555;28;20469;-67
2021/08/21 10:51:51;;;;;;;5.67;5.07;;;25.30;99.90;;;;;;5007012;28;20428;-66
2021/08/21 10:54:25;;;;;;;7.00;5.23;;;25.40;99.90;;;;;;5006818;28;20477;-65
2021/08/21 10:57:01;;;;;;;5.90;5.13;;;25.50;99.90;;;;;;5006993;28;20438;-64
2021/08/21 10:59:44;;;;;;;5.90;5.40;;;25.60;99.90;;;;;;5005190;28;21002;-67
2021/08/21 11:02:31;;;;;;;5.10;4.60;;;25.60;99.90;;;;;;5007402;28;20432;-64
2021/08/21 11:04:58;;;;;;;6.10;5.50;;;25.70;99.90;;;;;;5010504;28;21063;-65
2021/08/21 11:07:31;;;;;;;6.30;5.40;;;25.70;99.90;;;;;;5006407;28;21045;-65
2021/08/21 11:10:13;;;;;;;7.20;5.40;;;25.80;99.90;;;;;;5004107;28;20467;-68
2021/08/21 11:12:39;;;;;;;5.40;4.90;;;26.00;99.90;;;;;;5007779;28;20439;-66
2021/08/21 11:15:32;;;;;;;10.80;5.60;;;26.00;99.90;;;;;;5007653;28;20420;-68
2021/08/21 11:17:58;;;;;;;7.30;5.97;;;25.90;99.90;;;;;;5006602;28;20432;-65
2021/08/21 11:20:37;;;;;;;6.43;5.13;;;25.80;99.90;;;;;;5009890;28;20988;-66
2021/08/21 11:23:08;;;;;;;6.50;5.13;;;26.00;99.90;;;;;;5005678;28;20954;-67
2021/08/21 11:25:43;;;;;;;6.10;4.77;;;26.20;99.90;;;;;;5008144;28;21065;-65
2021/08/21 11:28:13;;;;;;;6.13;4.57;;;26.40;99.90;;;;;;5006523;28;20427;-65
2021/08/21 11:30:39;;;;;;;7.20;5.33;;;26.50;99.90;;;;;;4992489;28;20432;-66
2021/08/21 11:33:08;;;;;;;4.73;4.30;;;26.60;99.90;;;;;;5006110;28;20822;-68
2021/08/21 11:35:52;;;;;;;5.13;4.60;;;26.60;99.90;;;;;;5006451;28;20412;-67
2021/08/21 11:38:23;;;;;;;4.87;4.47;;;26.60;99.90;;;;;;5005238;28;20443;-65
2021/08/21 11:41:15;;;;;;;5.20;4.60;;;26.80;99.90;;;;;;5005787;28;20450;-65
2021/08/21 11:44:01;;;;;;;6.23;5.07;;;26.80;99.90;;;;;;5007652;28;20416;-64
2021/08/21 11:46:36;;;;;;;5.33;4.83;;;26.70;99.90;;;;;;5004068;28;20502;-64
2021/08/21 11:49:08;;;;;;;4.93;4.43;;;26.80;99.90;;;;;;5028890;22;20497;-65
2021/08/21 11:52:05;;;;;;;6.03;4.77;;;27.00;99.90;;;;;;5047727;28;20461;-66
2021/08/21 11:54:47;;;;;;;6.30;4.63;;;27.30;99.90;;;;;;5046831;28;20431;-65
2021/08/21 11:57:40;;;;;;;6.30;5.80;;;27.50;99.90;;;;;;5021522;28;20462;-66
2021/08/21 12:00:18;;;;;;;5.33;4.83;;;27.70;99.90;;;;;;5022742;28;20451;-65
2021/08/21 12:02:52;;;;;;;7.20;4.40;;;28.10;99.90;;;;;;5025664;28;20438;-64
2021/08/21 12:05:29;;;;;;;5.30;4.80;;;28.20;99.90;;;;;;5023613;28;20447;-65
2021/08/21 12:07:55;;;;;;;5.80;5.30;;;28.60;99.90;;;;;;5007757;28;20442;-68
2021/08/21 12:10:21;;;;;;;4.53;4.20;;;29.10;99.90;;;;;;5022909;28;20837;-68
2021/08/21 12:12:54;;;;;;;6.20;4.90;;;29.80;99.90;;;;;;5007535;28;20519;-65
2021/08/21 12:15:30;;;;;;;5.33;4.83;;;30.40;99.90;;;;;;5027443;28;20525;-66
2021/08/21 12:17:56;;;;;;;6.20;4.67;;;30.90;99.90;;;;;;5025655;28;20829;-66
2021/08/21 12:20:24;;;;;;;6.27;5.00;;;31.30;99.90;;;;;;5022818;28;20467;-66
2021/08/21 12:22:49;;;;;;;4.30;3.87;;;31.40;99.90;;;;;;5026729;28;20905;-66
2021/08/21 12:25:16;;;;;;;5.50;5.10;;;31.70;99.90;;;;;;4987347;28;20533;-66
2021/08/21 12:27:41;;;;;;;5.27;4.77;;;32.20;99.70;;;;;;5019123;28;20180;-67
2021/08/21 12:30:19;;;;;;;4.73;4.23;;;33.10;98.10;;;;;;5020644;28;21041;-68
2021/08/21 12:32:45;;;;;;;5.37;4.83;;;32.80;97.70;;;;;;4989892;28;20192;-67
2021/08/21 12:35:21;;;;;;;4.97;4.13;;;32.80;96.10;;;;;;5004146;28;20423;-67
2021/08/21 12:38:02;;;;;;;4.70;4.30;;;33.70;94.60;;;;;;5021431;28;20489;-70
2021/08/21 12:40:28;;;;;;;4.90;4.50;;;34.00;92.80;;;;;;5020379;28;20434;-66
2021/08/21 12:43:27;;;;;;;5.40;4.90;;;33.90;92.40;;;;;;5024134;28;20921;-69
2021/08/21 12:45:58;;;;;;;4.60;4.30;;;34.00;91.40;;;;;;5021356;28;20583;-68
2021/08/21 12:48:24;;;;;;;5.20;4.77;;;33.00;91.40;;;;;;5005159;28;20823;-65
2021/08/21 12:50:51;;;;;;;6.60;4.27;;;33.80;91.70;;;;;;5009439;28;20745;-66
2021/08/21 12:53:19;;;;;;;6.10;5.60;;;34.10;90.30;;;;;;5026156;28;20794;-68
2021/08/21 12:55:47;;;;;;;4.93;4.53;;;34.20;88.30;;;;;;4991407;28;20414;-71
2021/08/21 12:58:13;;;;;;;5.10;4.43;;;34.60;89.60;;;;;;5024381;28;20401;-67
2021/08/21 13:00:41;;;;;;;5.63;5.00;;;34.80;86.90;;;;;;5018705;28;20825;-67
2021/08/21 13:03:22;;;;;;;5.63;5.13;;;35.10;85.30;;;;;;5006952;28;20862;-69
2021/08/21 13:05:56;;;;;;;7.67;4.90;;;35.30;86.40;;;;;;5021046;28;20839;-67
2021/08/21 13:08:41;;;;;;;5.50;5.10;;;34.90;91.30;;;;;;5023517;28;21094;-68
2021/08/21 13:11:08;;;;;;;5.50;5.10;;;34.20;85.90;;;;;;5025378;28;20424;-65
2021/08/21 13:13:35;;;;;;;5.47;4.97;;;33.70;86.90;;;;;;5011196;28;20405;-68
2021/08/21 13:16:10;;;;;;;6.10;5.60;;;32.60;90.00;;;;;;5031659;28;20448;-68